sensor_id;sensor_type;location;lat;lon;timestamp;temperature;humidity
15113;DHT22;7657;50.140;7.076;2023-04-24T00:00:55;10.90;99.90
15113;DHT22;7657;50.140;7.076;2023-04-24T00:03:23;11.00;99.90
15113;DHT22;7657;50.140;7.076;2023-04-24T00:05:50;11.00;99.90
15113;DHT22;7657;50.140;7.076;2023-04-24T00:08:19;11.00;99.90
15113;DHT22;7657;50.140;7.076;2023-04-24T00:10:46;10.90;99.90
15113;DHT22;7657;50.140;7.076;2023-04-24T00:13:12;10.90;99.90
15113;DHT22;7657;50.140;7.076;2023-04-24T00:15:39;10.70;99.90
15113;DHT22;7657;50.140;7.076;2023-04-24T00:18:06;10.60;99.90
15113;DHT22;7657;50.140;7.076;2023-04-24T00:20:34;10.60;99.90
15113;DHT22;7657;50.140;7.076;2023-04-24T00:23:01;10.60;99.90
15113;DHT22;7657;50.140;7.076;2023-04-24T00:25:29;10.50;99.90
15113;DHT22;7657;50.140;7.076;2023-04-24T00:27:56;10.60;99.90
15113;DHT22;7657;50.140;7.076;2023-04-24T00:30:23;10.70;99.90
15113;DHT22;7657;50.140;7.076;2023-04-24T00:32:50;10.80;99.90
15113;DHT22;7657;50.140;7.076;2023-04-24T00:35:17;10.80;99.90
15113;DHT22;7657;50.140;7.076;2023-04-24T00:37:45;10.60;99.90
15113;DHT22;7657;50.140;7.076;2023-04-24T00:40:12;10.60;99.90
15113;DHT22;7657;50.140;7.076;2023-04-24T00:42:40;10.30;99.90
15113;DHT22;7657;50.140;7.076;2023-04-24T00:45:08;10.40;99.90
15113;DHT22;7657;50.140;7.076;2023-04-24T00:47:35;10.30;99.90
15113;DHT22;7657;50.140;7.076;2023-04-24T00:50:02;10.30;99.90
15113;DHT22;7657;50.140;7.076;2023-04-24T00:52:29;10.20;99.90
15113;DHT22;7657;50.140;7.076;2023-04-24T00:54:57;10.20;99.90
15113;DHT22;7657;50.140;7.076;2023-04-24T00:57:24;10.10;99.90
15113;DHT22;7657;50.140;7.076;2023-04-24T00:59:53;9.90;99.90
15113;DHT22;7657;50.140;7.076;2023-04-24T01:02:21;10.00;99.90
15113;DHT22;7657;50.140;7.076;2023-04-24T01:04:50;10.00;99.90
15113;DHT22;7657;50.140;7.076;2023-04-24T01:07:19;9.90;99.90
15113;DHT22;7657;50.140;7.076;2023-04-24T01:09:47;9.90;99.90
15113;DHT22;7657;50.140;7.076;2023-04-24T01:12:16;10.00;99.90
15113;DHT22;7657;50.140;7.076;2023-04-24T01:14:44;9.90;99.90
15113;DHT22;7657;50.140;7.076;2023-04-24T01:17:12;9.80;99.90
15113;DHT22;7657;50.140;7.076;2023-04-24T01:19:39;9.70;99.90
15113;DHT22;7657;50.140;7.076;2023-04-24T01:22:12;9.60;99.90
15113;DHT22;7657;50.140;7.076;2023-04-24T01:24:39;9.70;99.90
15113;DHT22;7657;50.140;7.076;2023-04-24T01:27:07;9.70;99.90
15113;DHT22;7657;50.140;7.076;2023-04-24T01:29:34;9.70;99.90
15113;DHT22;7657;50.140;7.076;2023-04-24T01:32:02;9.60;99.90
15113;DHT22;7657;50.140;7.076;2023-04-24T01:34:29;9.50;99.90
15113;DHT22;7657;50.140;7.076;2023-04-24T01:36:56;9.50;99.90
15113;DHT22;7657;50.140;7.076;2023-04-24T01:39:25;9.50;99.90
15113;DHT22;7657;50.140;7.076;2023-04-24T01:41:54;9.60;99.90
15113;DHT22;7657;50.140;7.076;2023-04-24T01:44:21;9.60;99.90
15113;DHT22;7657;50.140;7.076;2023-04-24T01:46:48;9.60;99.90
15113;DHT22;7657;50.140;7.076;2023-04-24T01:49:15;9.50;99.90
15113;DHT22;7657;50.140;7.076;2023-04-24T01:51:42;9.50;99.90
15113;DHT22;7657;50.140;7.076;2023-04-24T01:54:10;9.40;99.90
15113;DHT22;7657;50.140;7.076;2023-04-24T01:56:41;9.30;99.90
15113;DHT22;7657;50.140;7.076;2023-04-24T01:59:10;9.30;99.90
15113;DHT22;7657;50.140;7.076;2023-04-24T02:01:38;9.20;99.90
15113;DHT22;7657;50.140;7.076;2023-04-24T02:04:06;9.30;99.90
15113;DHT22;7657;50.140;7.076;2023-04-24T02:06:33;9.30;99.90
15113;DHT22;7657;50.140;7.076;2023-04-24T02:09:00;9.30;99.90
15113;DHT22;7657;50.140;7.076;2023-04-24T02:11:27;9.20;99.90
15113;DHT22;7657;50.140;7.076;2023-04-24T02:13:55;9.30;99.90
15113;DHT22;7657;50.140;7.076;2023-04-24T02:16:22;9.30;99.90
15113;DHT22;7657;50.140;7.076;2023-04-24T02:18:49;9.20;99.90
15113;DHT22;7657;50.140;7.076;2023-04-24T02:21:16;9.20;99.90
15113;DHT22;7657;50.140;7.076;2023-04-24T02:23:43;9.10;99.90
15113;DHT22;7657;50.140;7.076;2023-04-24T02:26:10;9.20;99.90
15113;DHT22;7657;50.140;7.076;2023-04-24T02:28:37;9.20;99.90
15113;DHT22;7657;50.140;7.076;2023-04-24T02:31:05;9.20;99.90
15113;DHT22;7657;50.140;7.076;2023-04-24T02:33:32;9.10;99.90
15113;DHT22;7657;50.140;7.076;2023-04-24T02:35:59;9.10;99.90
15113;DHT22;7657;50.140;7.076;2023-04-24T02:38:26;9.10;99.90
15113;DHT22;7657;50.140;7.076;2023-04-24T02:40:53;9.00;99.90
15113;DHT22;7657;50.140;7.076;2023-04-24T02:43:20;9.00;99.90
15113;DHT22;7657;50.140;7.076;2023-04-24T02:45:47;8.90;99.90
15113;DHT22;7657;50.140;7.076;2023-04-24T02:48:15;8.90;99.90
15113;DHT22;7657;50.140;7.076;2023-04-24T02:50:42;8.90;99.90
15113;DHT22;7657;50.140;7.076;2023-04-24T02:53:09;8.80;99.90
15113;DHT22;7657;50.140;7.076;2023-04-24T02:55:36;8.80;99.90
15113;DHT22;7657;50.140;7.076;2023-04-24T02:58:03;8.70;99.90
15113;DHT22;7657;50.140;7.076;2023-04-24T03:00:31;8.60;99.90
15113;DHT22;7657;50.140;7.076;2023-04-24T03:02:58;8.60;99.90
15113;DHT22;7657;50.140;7.076;2023-04-24T03:05:26;8.60;99.90
15113;DHT22;7657;50.140;7.076;2023-04-24T03:07:53;8.60;99.90
15113;DHT22;7657;50.140;7.076;2023-04-24T03:10:20;8.70;99.90
15113;DHT22;7657;50.140;7.076;2023-04-24T03:12:48;8.70;99.90
15113;DHT22;7657;50.140;7.076;2023-04-24T03:15:16;8.60;99.90
15113;DHT22;7657;50.140;7.076;2023-04-24T03:17:43;8.60;99.90
15113;DHT22;7657;50.140;7.076;2023-04-24T03:20:10;8.60;99.90
15113;DHT22;7657;50.140;7.076;2023-04-24T03:22:38;8.50;99.90
15113;DHT22;7657;50.140;7.076;2023-04-24T03:25:06;8.50;99.90
15113;DHT22;7657;50.140;7.076;2023-04-24T03:27:34;8.40;99.90
15113;DHT22;7657;50.140;7.076;2023-04-24T03:30:01;8.30;99.90
15113;DHT22;7657;50.140;7.076;2023-04-24T03:32:28;8.20;99.90
15113;DHT22;7657;50.140;7.076;2023-04-24T03:34:55;8.20;99.90
15113;DHT22;7657;50.140;7.076;2023-04-24T03:37:22;8.30;99.90
15113;DHT22;7657;50.140;7.076;2023-04-24T03:39:50;8.40;99.90
15113;DHT22;7657;50.140;7.076;2023-04-24T03:42:17;8.20;99.90
15113;DHT22;7657;50.140;7.076;2023-04-24T03:44:44;8.20;99.90
15113;DHT22;7657;50.140;7.076;2023-04-24T03:47:11;8.20;99.90
15113;DHT22;7657;50.140;7.076;2023-04-24T03:49:38;8.20;99.90
15113;DHT22;7657;50.140;7.076;2023-04-24T03:52:05;8.20;99.90
15113;DHT22;7657;50.140;7.076;2023-04-24T03:54:32;8.10;99.90
15113;DHT22;7657;50.140;7.076;2023-04-24T03:57:00;8.00;99.90
15113;DHT22;7657;50.140;7.076;2023-04-24T03:59:29;8.10;99.90
15113;DHT22;7657;50.140;7.076;2023-04-24T04:01:55;8.20;99.90
15113;DHT22;7657;50.140;7.076;2023-04-24T04:04:22;8.20;99.90
15113;DHT22;7657;50.140;7.076;2023-04-24T04:06:49;8.10;99.90
15113;DHT22;7657;50.140;7.076;2023-04-24T04:09:16;8.00;99.90
15113;DHT22;7657;50.140;7.076;2023-04-24T04:11:43;8.00;99.90
15113;DHT22;7657;50.140;7.076;2023-04-24T04:14:12;8.00;99.90
15113;DHT22;7657;50.140;7.076;2023-04-24T04:16:38;7.90;99.90
15113;DHT22;7657;50.140;7.076;2023-04-24T04:19:05;7.80;99.90
15113;DHT22;7657;50.140;7.076;2023-04-24T04:21:32;7.80;99.90
15113;DHT22;7657;50.140;7.076;2023-04-24T04:23:59;8.00;99.90
15113;DHT22;7657;50.140;7.076;2023-04-24T04:26:26;8.10;99.90
15113;DHT22;7657;50.140;7.076;2023-04-24T04:28:53;8.10;99.90
15113;DHT22;7657;50.140;7.076;2023-04-24T04:31:22;8.20;99.90
15113;DHT22;7657;50.140;7.076;2023-04-24T04:33:48;8.20;99.90
15113;DHT22;7657;50.140;7.076;2023-04-24T04:36:15;8.20;99.90
15113;DHT22;7657;50.140;7.076;2023-04-24T04:38:43;8.20;99.90
15113;DHT22;7657;50.140;7.076;2023-04-24T04:41:10;8.10;99.90
15113;DHT22;7657;50.140;7.076;2023-04-24T04:43:37;8.10;99.90
15113;DHT22;7657;50.140;7.076;2023-04-24T04:46:06;8.00;99.90
15113;DHT22;7657;50.140;7.076;2023-04-24T04:48:35;8.00;99.90
15113;DHT22;7657;50.140;7.076;2023-04-24T04:51:02;8.00;99.90
15113;DHT22;7657;50.140;7.076;2023-04-24T04:53:29;8.00;99.90
15113;DHT22;7657;50.140;7.076;2023-04-24T04:55:56;8.00;99.90
15113;DHT22;7657;50.140;7.076;2023-04-24T04:58:23;7.90;99.90
15113;DHT22;7657;50.140;7.076;2023-04-24T05:00:50;8.10;99.90
15113;DHT22;7657;50.140;7.076;2023-04-24T05:03:17;8.10;99.90
15113;DHT22;7657;50.140;7.076;2023-04-24T05:05:46;8.20;99.90
15113;DHT22;7657;50.140;7.076;2023-04-24T05:08:12;8.10;99.90
15113;DHT22;7657;50.140;7.076;2023-04-24T05:10:39;8.10;99.90
15113;DHT22;7657;50.140;7.076;2023-04-24T05:13:06;8.10;99.90
15113;DHT22;7657;50.140;7.076;2023-04-24T05:15:33;8.20;99.90
15113;DHT22;7657;50.140;7.076;2023-04-24T05:18:00;8.10;99.90
15113;DHT22;7657;50.140;7.076;2023-04-24T05:20:27;8.20;99.90
15113;DHT22;7657;50.140;7.076;2023-04-24T05:22:55;8.00;99.90
15113;DHT22;7657;50.140;7.076;2023-04-24T05:25:22;8.00;99.90
15113;DHT22;7657;50.140;7.076;2023-04-24T05:27:49;8.10;99.90
15113;DHT22;7657;50.140;7.076;2023-04-24T05:30:16;8.00;99.90
15113;DHT22;7657;50.140;7.076;2023-04-24T05:32:42;8.00;99.90
15113;DHT22;7657;50.140;7.076;2023-04-24T05:35:10;8.00;99.90
15113;DHT22;7657;50.140;7.076;2023-04-24T05:37:37;7.90;99.90
15113;DHT22;7657;50.140;7.076;2023-04-24T05:40:06;7.90;99.90
15113;DHT22;7657;50.140;7.076;2023-04-24T05:42:34;8.00;99.90
15113;DHT22;7657;50.140;7.076;2023-04-24T05:45:01;7.90;99.90
15113;DHT22;7657;50.140;7.076;2023-04-24T05:47:28;7.90;99.90
15113;DHT22;7657;50.140;7.076;2023-04-24T05:49:54;8.00;99.90
15113;DHT22;7657;50.140;7.076;2023-04-24T05:52:21;7.90;99.90
15113;DHT22;7657;50.140;7.076;2023-04-24T05:54:48;8.00;99.90
15113;DHT22;7657;50.140;7.076;2023-04-24T05:57:17;7.90;99.90
15113;DHT22;7657;50.140;7.076;2023-04-24T05:59:43;8.00;99.90
15113;DHT22;7657;50.140;7.076;2023-04-24T06:02:10;8.10;99.90
15113;DHT22;7657;50.140;7.076;2023-04-24T06:04:37;8.30;99.90
15113;DHT22;7657;50.140;7.076;2023-04-24T06:07:05;8.30;99.90
15113;DHT22;7657;50.140;7.076;2023-04-24T06:09:32;8.30;99.90
15113;DHT22;7657;50.140;7.076;2023-04-24T06:11:59;8.30;99.90
15113;DHT22;7657;50.140;7.076;2023-04-24T06:14:27;8.30;99.90
15113;DHT22;7657;50.140;7.076;2023-04-24T06:16:54;8.10;99.90
15113;DHT22;7657;50.140;7.076;2023-04-24T06:19:21;8.10;99.90
15113;DHT22;7657;50.140;7.076;2023-04-24T06:21:48;8.20;99.90
15113;DHT22;7657;50.140;7.076;2023-04-24T06:24:15;8.10;99.90
15113;DHT22;7657;50.140;7.076;2023-04-24T06:26:42;8.10;99.90
15113;DHT22;7657;50.140;7.076;2023-04-24T06:29:09;8.00;99.90
15113;DHT22;7657;50.140;7.076;2023-04-24T06:31:37;8.20;99.90
15113;DHT22;7657;50.140;7.076;2023-04-24T06:34:04;8.30;99.90
15113;DHT22;7657;50.140;7.076;2023-04-24T06:36:31;8.40;99.90
15113;DHT22;7657;50.140;7.076;2023-04-24T06:39:00;8.40;99.90
15113;DHT22;7657;50.140;7.076;2023-04-24T06:41:27;8.40;99.90
15113;DHT22;7657;50.140;7.076;2023-04-24T06:43:55;8.50;99.90
15113;DHT22;7657;50.140;7.076;2023-04-24T06:46:22;8.40;99.90
15113;DHT22;7657;50.140;7.076;2023-04-24T06:48:53;8.40;99.90
15113;DHT22;7657;50.140;7.076;2023-04-24T06:51:22;8.40;99.90
15113;DHT22;7657;50.140;7.076;2023-04-24T06:53:49;8.30;99.90
15113;DHT22;7657;50.140;7.076;2023-04-24T06:56:16;8.20;99.90
15113;DHT22;7657;50.140;7.076;2023-04-24T06:58:43;8.20;99.90
15113;DHT22;7657;50.140;7.076;2023-04-24T07:01:10;8.20;99.90
15113;DHT22;7657;50.140;7.076;2023-04-24T07:03:37;8.20;99.90
15113;DHT22;7657;50.140;7.076;2023-04-24T07:06:06;8.20;99.90
15113;DHT22;7657;50.140;7.076;2023-04-24T07:08:33;8.10;99.90
15113;DHT22;7657;50.140;7.076;2023-04-24T07:11:01;8.10;99.90
15113;DHT22;7657;50.140;7.076;2023-04-24T07:13:28;8.10;99.90
15113;DHT22;7657;50.140;7.076;2023-04-24T07:15:55;8.00;99.90
15113;DHT22;7657;50.140;7.076;2023-04-24T07:18:22;8.00;99.90
15113;DHT22;7657;50.140;7.076;2023-04-24T07:20:49;8.00;99.90
15113;DHT22;7657;50.140;7.076;2023-04-24T07:23:17;7.90;99.90
15113;DHT22;7657;50.140;7.076;2023-04-24T07:25:44;8.00;99.90
15113;DHT22;7657;50.140;7.076;2023-04-24T07:28:12;8.10;99.90
15113;DHT22;7657;50.140;7.076;2023-04-24T07:30:39;8.20;99.90
15113;DHT22;7657;50.140;7.076;2023-04-24T07:33:06;8.30;99.90
15113;DHT22;7657;50.140;7.076;2023-04-24T07:35:33;8.30;99.90
15113;DHT22;7657;50.140;7.076;2023-04-24T07:38:00;8.50;99.90
15113;DHT22;7657;50.140;7.076;2023-04-24T07:40:29;8.60;99.90
15113;DHT22;7657;50.140;7.076;2023-04-24T07:42:57;8.60;99.90
15113;DHT22;7657;50.140;7.076;2023-04-24T07:45:24;8.70;99.90
15113;DHT22;7657;50.140;7.076;2023-04-24T07:47:52;8.50;99.90
15113;DHT22;7657;50.140;7.076;2023-04-24T07:50:19;8.50;99.90
15113;DHT22;7657;50.140;7.076;2023-04-24T07:52:46;8.60;99.90
15113;DHT22;7657;50.140;7.076;2023-04-24T07:55:13;8.60;99.90
15113;DHT22;7657;50.140;7.076;2023-04-24T07:57:41;8.60;99.90
15113;DHT22;7657;50.140;7.076;2023-04-24T08:00:09;8.40;99.90
15113;DHT22;7657;50.140;7.076;2023-04-24T08:02:36;8.40;99.90
15113;DHT22;7657;50.140;7.076;2023-04-24T08:05:03;8.50;99.90
15113;DHT22;7657;50.140;7.076;2023-04-24T08:07:30;8.60;99.90
15113;DHT22;7657;50.140;7.076;2023-04-24T08:09:57;8.50;99.90
15113;DHT22;7657;50.140;7.076;2023-04-24T08:12:25;8.60;99.90
15113;DHT22;7657;50.140;7.076;2023-04-24T08:14:53;8.60;99.90
15113;DHT22;7657;50.140;7.076;2023-04-24T08:17:20;8.60;99.90
15113;DHT22;7657;50.140;7.076;2023-04-24T08:19:47;8.60;99.90
15113;DHT22;7657;50.140;7.076;2023-04-24T08:22:14;8.50;99.90
15113;DHT22;7657;50.140;7.076;2023-04-24T08:24:41;8.50;99.90
15113;DHT22;7657;50.140;7.076;2023-04-24T08:27:09;8.40;99.90
15113;DHT22;7657;50.140;7.076;2023-04-24T08:29:36;8.40;99.90
15113;DHT22;7657;50.140;7.076;2023-04-24T08:32:04;8.40;99.90
15113;DHT22;7657;50.140;7.076;2023-04-24T08:34:31;8.40;99.90
15113;DHT22;7657;50.140;7.076;2023-04-24T08:36:58;8.40;99.90
15113;DHT22;7657;50.140;7.076;2023-04-24T08:39:25;8.40;99.90
15113;DHT22;7657;50.140;7.076;2023-04-24T08:41:52;8.30;99.90
15113;DHT22;7657;50.140;7.076;2023-04-24T08:44:20;8.20;99.90
15113;DHT22;7657;50.140;7.076;2023-04-24T08:46:47;8.10;99.90
15113;DHT22;7657;50.140;7.076;2023-04-24T08:49:17;8.00;99.90
15113;DHT22;7657;50.140;7.076;2023-04-24T08:51:45;8.00;99.90
15113;DHT22;7657;50.140;7.076;2023-04-24T08:54:12;8.00;99.90
15113;DHT22;7657;50.140;7.076;2023-04-24T08:56:40;8.10;99.90
15113;DHT22;7657;50.140;7.076;2023-04-24T08:59:09;8.10;99.90
15113;DHT22;7657;50.140;7.076;2023-04-24T09:01:37;8.20;99.90
15113;DHT22;7657;50.140;7.076;2023-04-24T09:04:07;8.30;99.90
15113;DHT22;7657;50.140;7.076;2023-04-24T09:06:35;8.40;99.90
15113;DHT22;7657;50.140;7.076;2023-04-24T09:09:02;8.50;99.90
15113;DHT22;7657;50.140;7.076;2023-04-24T09:11:30;8.50;99.90
15113;DHT22;7657;50.140;7.076;2023-04-24T09:13:58;8.70;99.90
15113;DHT22;7657;50.140;7.076;2023-04-24T09:16:26;8.90;99.90
15113;DHT22;7657;50.140;7.076;2023-04-24T09:18:53;9.00;99.90
15113;DHT22;7657;50.140;7.076;2023-04-24T09:21:21;9.00;99.90
15113;DHT22;7657;50.140;7.076;2023-04-24T09:23:59;9.00;99.90
15113;DHT22;7657;50.140;7.076;2023-04-24T09:26:28;9.00;99.90
15113;DHT22;7657;50.140;7.076;2023-04-24T09:28:56;9.10;99.90
15113;DHT22;7657;50.140;7.076;2023-04-24T09:31:24;9.20;99.90
15113;DHT22;7657;50.140;7.076;2023-04-24T09:33:57;9.10;99.90
15113;DHT22;7657;50.140;7.076;2023-04-24T09:36:28;9.00;99.90
15113;DHT22;7657;50.140;7.076;2023-04-24T09:39:00;8.90;99.90
15113;DHT22;7657;50.140;7.076;2023-04-24T09:41:27;8.90;99.90
15113;DHT22;7657;50.140;7.076;2023-04-24T09:43:55;8.80;99.90
15113;DHT22;7657;50.140;7.076;2023-04-24T09:46:29;8.70;99.90
15113;DHT22;7657;50.140;7.076;2023-04-24T09:48:57;8.60;99.90
15113;DHT22;7657;50.140;7.076;2023-04-24T09:51:34;8.60;99.90
15113;DHT22;7657;50.140;7.076;2023-04-24T09:54:04;8.60;99.90
15113;DHT22;7657;50.140;7.076;2023-04-24T09:56:33;8.50;99.90
15113;DHT22;7657;50.140;7.076;2023-04-24T09:59:07;8.40;99.90
15113;DHT22;7657;50.140;7.076;2023-04-24T10:01:34;8.50;99.90
15113;DHT22;7657;50.140;7.076;2023-04-24T10:04:01;8.40;99.90
15113;DHT22;7657;50.140;7.076;2023-04-24T10:06:33;8.50;99.90
15113;DHT22;7657;50.140;7.076;2023-04-24T10:09:01;8.40;99.90
15113;DHT22;7657;50.140;7.076;2023-04-24T10:11:30;8.40;99.90
15113;DHT22;7657;50.140;7.076;2023-04-24T10:13:57;8.40;99.90
15113;DHT22;7657;50.140;7.076;2023-04-24T10:16:25;8.40;99.90
15113;DHT22;7657;50.140;7.076;2023-04-24T10:18:54;8.30;99.90
15113;DHT22;7657;50.140;7.076;2023-04-24T10:21:21;8.40;99.90
15113;DHT22;7657;50.140;7.076;2023-04-24T10:23:49;8.40;99.90
15113;DHT22;7657;50.140;7.076;2023-04-24T10:26:17;8.60;99.90
15113;DHT22;7657;50.140;7.076;2023-04-24T10:28:47;8.80;99.90
15113;DHT22;7657;50.140;7.076;2023-04-24T10:31:15;8.80;99.90
15113;DHT22;7657;50.140;7.076;2023-04-24T10:33:42;8.90;99.90
15113;DHT22;7657;50.140;7.076;2023-04-24T10:36:10;8.90;99.90
15113;DHT22;7657;50.140;7.076;2023-04-24T10:38:40;8.90;99.90
15113;DHT22;7657;50.140;7.076;2023-04-24T10:41:09;8.90;99.90
15113;DHT22;7657;50.140;7.076;2023-04-24T10:43:41;8.90;99.90
15113;DHT22;7657;50.140;7.076;2023-04-24T10:46:10;9.10;99.90
15113;DHT22;7657;50.140;7.076;2023-04-24T10:48:42;9.10;99.90
15113;DHT22;7657;50.140;7.076;2023-04-24T10:51:12;9.20;99.90
15113;DHT22;7657;50.140;7.076;2023-04-24T10:53:39;9.10;99.90
15113;DHT22;7657;50.140;7.076;2023-04-24T10:56:07;9.20;99.90
15113;DHT22;7657;50.140;7.076;2023-04-24T10:58:39;9.30;99.90
15113;DHT22;7657;50.140;7.076;2023-04-24T11:01:06;9.50;99.90
15113;DHT22;7657;50.140;7.076;2023-04-24T11:03:35;9.60;99.90
15113;DHT22;7657;50.140;7.076;2023-04-24T11:06:04;9.60;99.90
15113;DHT22;7657;50.140;7.076;2023-04-24T11:08:43;9.70;99.90
15113;DHT22;7657;50.140;7.076;2023-04-24T11:11:12;9.60;99.90
15113;DHT22;7657;50.140;7.076;2023-04-24T11:14:09;9.60;99.90
15113;DHT22;7657;50.140;7.076;2023-04-24T11:16:42;9.80;99.90
15113;DHT22;7657;50.140;7.076;2023-04-24T11:19:20;10.00;99.90
15113;DHT22;7657;50.140;7.076;2023-04-24T11:21:55;10.20;99.90
15113;DHT22;7657;50.140;7.076;2023-04-24T11:24:31;10.30;99.90
15113;DHT22;7657;50.140;7.076;2023-04-24T11:27:03;10.30;99.90
15113;DHT22;7657;50.140;7.076;2023-04-24T11:29:42;10.40;99.90
15113;DHT22;7657;50.140;7.076;2023-04-24T11:32:24;10.40;99.90
15113;DHT22;7657;50.140;7.076;2023-04-24T11:34:54;10.30;99.90
15113;DHT22;7657;50.140;7.076;2023-04-24T11:37:22;10.20;99.90
15113;DHT22;7657;50.140;7.076;2023-04-24T11:39:53;10.00;99.90
15113;DHT22;7657;50.140;7.076;2023-04-24T11:42:21;10.00;99.90
15113;DHT22;7657;50.140;7.076;2023-04-24T11:44:49;10.10;99.90
15113;DHT22;7657;50.140;7.076;2023-04-24T11:47:16;10.10;99.90
15113;DHT22;7657;50.140;7.076;2023-04-24T11:49:43;10.00;99.90
15113;DHT22;7657;50.140;7.076;2023-04-24T11:52:15;9.90;99.90
15113;DHT22;7657;50.140;7.076;2023-04-24T11:54:48;10.00;99.90
15113;DHT22;7657;50.140;7.076;2023-04-24T11:57:15;10.00;99.90
15113;DHT22;7657;50.140;7.076;2023-04-24T11:59:42;10.30;99.90
15113;DHT22;7657;50.140;7.076;2023-04-24T12:02:17;10.40;99.90
15113;DHT22;7657;50.140;7.076;2023-04-24T12:04:46;10.50;99.90
15113;DHT22;7657;50.140;7.076;2023-04-24T12:07:14;10.50;99.90
15113;DHT22;7657;50.140;7.076;2023-04-24T12:09:42;10.40;99.90
15113;DHT22;7657;50.140;7.076;2023-04-24T12:12:09;10.40;99.90
15113;DHT22;7657;50.140;7.076;2023-04-24T12:14:43;10.40;99.90
15113;DHT22;7657;50.140;7.076;2023-04-24T12:17:10;10.40;99.90
15113;DHT22;7657;50.140;7.076;2023-04-24T12:19:37;10.40;99.90
15113;DHT22;7657;50.140;7.076;2023-04-24T12:22:05;10.40;99.90
15113;DHT22;7657;50.140;7.076;2023-04-24T12:24:34;10.50;99.90
15113;DHT22;7657;50.140;7.076;2023-04-24T12:27:01;10.40;99.90
15113;DHT22;7657;50.140;7.076;2023-04-24T12:29:28;10.40;99.90
15113;DHT22;7657;50.140;7.076;2023-04-24T12:31:54;10.40;99.90
15113;DHT22;7657;50.140;7.076;2023-04-24T12:34:23;10.50;99.90
15113;DHT22;7657;50.140;7.076;2023-04-24T12:36:51;10.40;99.90
15113;DHT22;7657;50.140;7.076;2023-04-24T12:39:19;10.40;99.90
15113;DHT22;7657;50.140;7.076;2023-04-24T12:41:56;10.40;99.90
15113;DHT22;7657;50.140;7.076;2023-04-24T12:44:30;10.50;99.90
15113;DHT22;7657;50.140;7.076;2023-04-24T12:47:00;10.60;99.90
15113;DHT22;7657;50.140;7.076;2023-04-24T12:49:27;10.70;99.90
15113;DHT22;7657;50.140;7.076;2023-04-24T12:51:54;10.70;99.90
15113;DHT22;7657;50.140;7.076;2023-04-24T12:54:21;10.70;99.90
15113;DHT22;7657;50.140;7.076;2023-04-24T12:56:48;10.60;99.90
15113;DHT22;7657;50.140;7.076;2023-04-24T12:59:16;10.50;99.90
15113;DHT22;7657;50.140;7.076;2023-04-24T13:01:43;10.50;99.90
15113;DHT22;7657;50.140;7.076;2023-04-24T13:04:10;10.40;99.90
15113;DHT22;7657;50.140;7.076;2023-04-24T13:06:37;10.50;99.90
15113;DHT22;7657;50.140;7.076;2023-04-24T13:09:04;10.50;99.90
15113;DHT22;7657;50.140;7.076;2023-04-24T13:11:31;10.60;99.90
15113;DHT22;7657;50.140;7.076;2023-04-24T13:13:57;10.70;99.90
15113;DHT22;7657;50.140;7.076;2023-04-24T13:16:26;10.60;99.90
15113;DHT22;7657;50.140;7.076;2023-04-24T13:18:53;10.70;99.90
15113;DHT22;7657;50.140;7.076;2023-04-24T13:21:19;10.70;99.90
15113;DHT22;7657;50.140;7.076;2023-04-24T13:23:46;10.70;99.90
15113;DHT22;7657;50.140;7.076;2023-04-24T13:26:13;10.70;99.90
15113;DHT22;7657;50.140;7.076;2023-04-24T13:28:40;10.60;99.90
15113;DHT22;7657;50.140;7.076;2023-04-24T13:31:07;10.50;99.90
15113;DHT22;7657;50.140;7.076;2023-04-24T13:33:35;10.50;99.90
15113;DHT22;7657;50.140;7.076;2023-04-24T13:36:02;10.40;99.90
15113;DHT22;7657;50.140;7.076;2023-04-24T13:38:29;10.40;99.90
15113;DHT22;7657;50.140;7.076;2023-04-24T13:40:56;10.30;99.90
15113;DHT22;7657;50.140;7.076;2023-04-24T13:43:23;10.30;99.90
15113;DHT22;7657;50.140;7.076;2023-04-24T13:45:50;10.40;99.90
15113;DHT22;7657;50.140;7.076;2023-04-24T13:48:17;10.40;99.90
15113;DHT22;7657;50.140;7.076;2023-04-24T13:50:45;10.40;99.90
15113;DHT22;7657;50.140;7.076;2023-04-24T13:53:13;10.40;99.90
15113;DHT22;7657;50.140;7.076;2023-04-24T13:55:40;10.40;99.90
15113;DHT22;7657;50.140;7.076;2023-04-24T13:58:07;10.40;99.90
15113;DHT22;7657;50.140;7.076;2023-04-24T14:00:34;10.50;99.90
15113;DHT22;7657;50.140;7.076;2023-04-24T14:03:01;10.50;99.90
15113;DHT22;7657;50.140;7.076;2023-04-24T14:05:28;10.50;99.90
15113;DHT22;7657;50.140;7.076;2023-04-24T14:07:56;10.50;99.90
15113;DHT22;7657;50.140;7.076;2023-04-24T14:10:23;10.70;99.90
15113;DHT22;7657;50.140;7.076;2023-04-24T14:12:51;10.80;99.90
15113;DHT22;7657;50.140;7.076;2023-04-24T14:15:18;10.80;99.90
15113;DHT22;7657;50.140;7.076;2023-04-24T14:17:45;10.90;99.90
15113;DHT22;7657;50.140;7.076;2023-04-24T14:20:12;11.10;99.90
15113;DHT22;7657;50.140;7.076;2023-04-24T14:22:39;11.30;99.90
15113;DHT22;7657;50.140;7.076;2023-04-24T14:25:08;11.40;99.90
15113;DHT22;7657;50.140;7.076;2023-04-24T14:27:35;11.70;99.90
15113;DHT22;7657;50.140;7.076;2023-04-24T14:30:03;11.80;99.90
15113;DHT22;7657;50.140;7.076;2023-04-24T14:32:30;11.60;99.90
15113;DHT22;7657;50.140;7.076;2023-04-24T14:34:57;11.70;99.90
15113;DHT22;7657;50.140;7.076;2023-04-24T14:37:24;12.20;99.90
15113;DHT22;7657;50.140;7.076;2023-04-24T14:39:51;12.40;99.90
15113;DHT22;7657;50.140;7.076;2023-04-24T14:42:19;12.50;99.90
15113;DHT22;7657;50.140;7.076;2023-04-24T14:44:46;12.40;99.90
15113;DHT22;7657;50.140;7.076;2023-04-24T14:47:13;12.40;99.90
15113;DHT22;7657;50.140;7.076;2023-04-24T14:49:39;12.20;99.90
15113;DHT22;7657;50.140;7.076;2023-04-24T14:52:06;12.10;99.90
15113;DHT22;7657;50.140;7.076;2023-04-24T14:54:33;12.10;99.90
15113;DHT22;7657;50.140;7.076;2023-04-24T14:57:00;12.30;99.90
15113;DHT22;7657;50.140;7.076;2023-04-24T14:59:29;12.30;99.90
15113;DHT22;7657;50.140;7.076;2023-04-24T15:01:56;12.40;99.90
15113;DHT22;7657;50.140;7.076;2023-04-24T15:04:23;12.40;99.90
15113;DHT22;7657;50.140;7.076;2023-04-24T15:06:51;12.40;99.90
15113;DHT22;7657;50.140;7.076;2023-04-24T15:09:19;12.70;99.90
15113;DHT22;7657;50.140;7.076;2023-04-24T15:11:46;13.40;99.90
15113;DHT22;7657;50.140;7.076;2023-04-24T15:14:13;13.90;99.90
15113;DHT22;7657;50.140;7.076;2023-04-24T15:16:41;14.10;99.90
15113;DHT22;7657;50.140;7.076;2023-04-24T15:19:08;14.20;99.90
15113;DHT22;7657;50.140;7.076;2023-04-24T15:21:35;14.20;99.90
15113;DHT22;7657;50.140;7.076;2023-04-24T15:24:03;14.10;99.90
15113;DHT22;7657;50.140;7.076;2023-04-24T15:26:30;13.90;99.90
15113;DHT22;7657;50.140;7.076;2023-04-24T15:28:57;13.60;99.90
15113;DHT22;7657;50.140;7.076;2023-04-24T15:31:24;13.60;99.90
15113;DHT22;7657;50.140;7.076;2023-04-24T15:33:52;13.60;99.90
15113;DHT22;7657;50.140;7.076;2023-04-24T15:36:19;13.40;99.90
15113;DHT22;7657;50.140;7.076;2023-04-24T15:38:47;13.50;99.90
15113;DHT22;7657;50.140;7.076;2023-04-24T15:41:14;13.60;99.90
15113;DHT22;7657;50.140;7.076;2023-04-24T15:43:41;13.40;99.90
15113;DHT22;7657;50.140;7.076;2023-04-24T15:46:09;13.40;99.90
15113;DHT22;7657;50.140;7.076;2023-04-24T15:48:36;13.30;99.90
15113;DHT22;7657;50.140;7.076;2023-04-24T15:51:05;13.20;99.90
15113;DHT22;7657;50.140;7.076;2023-04-24T15:53:32;13.10;99.90
15113;DHT22;7657;50.140;7.076;2023-04-24T15:55:59;13.00;99.90
15113;DHT22;7657;50.140;7.076;2023-04-24T15:58:26;13.00;99.90